createdAt,value
2019-05-07T00:02:03.038Z,11.70
2019-05-07T00:04:33.210Z,11.80
2019-05-07T00:07:02.384Z,12.83
2019-05-07T00:09:32.339Z,12.60
2019-05-07T00:12:04.722Z,12.70
2019-05-07T00:14:31.991Z,12.37
2019-05-07T00:17:02.257Z,13.17
2019-05-07T00:19:32.469Z,13.00
2019-05-07T00:22:02.391Z,12.70
2019-05-07T00:24:32.946Z,13.27
2019-05-07T00:27:02.863Z,13.10
2019-05-07T00:29:32.243Z,12.97
2019-05-07T00:32:02.833Z,11.90
2019-05-07T00:34:32.853Z,13.93
2019-05-07T00:37:03.106Z,12.90
2019-05-07T00:39:48.327Z,12.37
2019-05-07T00:42:18.378Z,13.50
2019-05-07T00:44:57.627Z,13.57
2019-05-07T00:47:26.418Z,13.40
2019-05-07T00:49:56.929Z,13.57
2019-05-07T00:52:25.346Z,13.90
2019-05-07T00:54:53.762Z,13.33
2019-05-07T00:57:22.960Z,12.27
2019-05-07T00:59:52.504Z,11.90
2019-05-07T01:02:22.741Z,11.90
2019-05-07T01:04:53.229Z,11.67
2019-05-07T01:07:22.973Z,10.63
2019-05-07T01:09:52.379Z,10.70
2019-05-07T01:12:22.208Z,10.20
2019-05-07T01:14:52.783Z,10.37
2019-05-07T01:17:22.665Z,10.70
2019-05-07T01:19:53.237Z,10.80
2019-05-07T01:22:22.339Z,10.30
2019-05-07T01:24:52.556Z,9.50
2019-05-07T01:27:22.656Z,9.87
2019-05-07T01:29:52.789Z,9.90
2019-05-07T01:32:29.080Z,10.80
2019-05-07T01:34:59.117Z,9.80
2019-05-07T01:37:27.821Z,9.60
2019-05-07T01:39:56.506Z,10.30
2019-05-07T01:42:25.193Z,8.87
2019-05-07T01:44:53.604Z,8.07
2019-05-07T01:47:23.698Z,11.07
2019-05-07T01:49:55.116Z,11.47
2019-05-07T01:52:22.752Z,11.10
2019-05-07T01:54:52.292Z,10.93
2019-05-07T01:57:22.972Z,10.27
2019-05-07T01:59:52.737Z,10.77
2019-05-07T02:02:23.130Z,11.27
2019-05-07T02:04:53.540Z,11.67
2019-05-07T02:07:33.465Z,11.17
2019-05-07T02:10:19.034Z,10.87
2019-05-07T02:12:47.451Z,11.00
2019-05-07T02:15:16.131Z,10.80
2019-05-07T02:17:44.820Z,11.03
2019-05-07T02:20:13.962Z,12.20
2019-05-07T02:22:42.880Z,11.30
2019-05-07T02:25:12.689Z,11.13
2019-05-07T02:27:42.112Z,11.47
2019-05-07T02:30:14.467Z,11.00
2019-05-07T02:32:43.252Z,11.00
2019-05-07T02:35:13.528Z,10.90
2019-05-07T02:37:50.865Z,11.33
2019-05-07T02:40:15.306Z,12.33
2019-05-07T02:42:44.415Z,12.80
2019-05-07T02:45:17.822Z,14.20
2019-05-07T02:47:46.245Z,13.60
2019-05-07T02:50:32.904Z,13.23
2019-05-07T02:53:04.180Z,14.00
2019-05-07T02:55:34.549Z,13.07
2019-05-07T02:58:03.765Z,14.60
2019-05-07T03:00:33.487Z,12.63
2019-05-07T03:03:04.213Z,12.60
2019-05-07T03:05:34.898Z,11.43
2019-05-07T03:08:03.711Z,12.97
2019-05-07T03:10:34.120Z,11.60
2019-05-07T03:13:03.253Z,12.20
2019-05-07T03:15:33.438Z,12.00
2019-05-07T03:18:03.436Z,13.93
2019-05-07T03:20:34.761Z,14.23
2019-05-07T03:23:03.750Z,13.40
2019-05-07T03:25:34.184Z,13.77
2019-05-07T03:28:04.383Z,14.40
2019-05-07T03:30:35.874Z,14.20
2019-05-07T03:33:07.515Z,13.60
2019-05-07T03:35:38.291Z,13.10
2019-05-07T03:38:07.147Z,13.50
2019-05-07T03:40:36.648Z,13.50
2019-05-07T03:43:06.236Z,14.23
2019-05-07T03:45:38.995Z,14.40
2019-05-07T03:48:13.633Z,15.73
2019-05-07T03:50:43.144Z,15.80
2019-05-07T03:53:14.317Z,15.20
2019-05-07T03:55:44.538Z,15.37
2019-05-07T03:58:14.642Z,12.73
2019-05-07T04:00:44.506Z,13.87
2019-05-07T04:03:16.374Z,13.27
2019-05-07T04:05:43.638Z,12.70
2019-05-07T04:08:13.173Z,13.50
2019-05-07T04:10:44.283Z,13.27
2019-05-07T04:13:13.363Z,14.20
2019-05-07T04:15:43.797Z,13.90
2019-05-07T04:18:13.325Z,14.10
2019-05-07T04:20:43.482Z,14.47
2019-05-07T04:23:13.753Z,15.00
2019-05-07T04:25:46.869Z,13.67
2019-05-07T04:28:17.271Z,14.80
2019-05-07T04:30:45.966Z,13.17
2019-05-07T04:33:19.049Z,14.63
2019-05-07T04:35:49.112Z,14.10
2019-05-07T04:38:17.516Z,14.77
2019-05-07T04:40:45.934Z,14.47
2019-05-07T04:43:14.540Z,13.93
2019-05-07T04:45:43.655Z,13.40
2019-05-07T04:48:14.119Z,15.10
2019-05-07T04:50:47.948Z,15.50
2019-05-07T04:53:14.399Z,15.30
2019-05-07T04:55:43.239Z,14.87
2019-05-07T04:58:14.101Z,14.47
2019-05-07T05:00:43.102Z,14.53
2019-05-07T05:03:13.854Z,14.57
2019-05-07T05:05:43.546Z,14.17
2019-05-07T05:08:13.436Z,14.90
2019-05-07T05:10:43.282Z,15.70
2019-05-07T05:13:12.893Z,14.80
2019-05-07T05:15:43.109Z,15.47
2019-05-07T05:18:12.861Z,15.43
2019-05-07T05:20:55.178Z,13.53
2019-05-07T05:23:25.230Z,15.33
2019-05-07T05:25:53.960Z,15.60
2019-05-07T05:28:22.386Z,16.53
2019-05-07T05:30:58.594Z,15.60
2019-05-07T05:33:27.008Z,15.53
2019-05-07T05:35:55.414Z,15.90
2019-05-07T05:38:23.835Z,16.57
2019-05-07T05:40:52.298Z,16.70
2019-05-07T05:43:25.438Z,15.60
2019-05-07T05:46:04.347Z,15.77
2019-05-07T05:48:33.481Z,16.30
2019-05-07T05:51:11.777Z,16.03
2019-05-07T05:53:43.687Z,16.43
2019-05-07T05:56:18.798Z,17.27
2019-05-07T05:58:57.695Z,16.67
2019-05-07T06:01:36.769Z,15.07
2019-05-07T06:04:15.549Z,15.37
2019-05-07T06:06:45.598Z,16.60
2019-05-07T06:09:32.786Z,16.33
2019-05-07T06:12:21.983Z,16.47
2019-05-07T06:14:53.377Z,16.27
2019-05-07T06:17:25.990Z,16.13
2019-05-07T06:20:12.545Z,16.03
2019-05-07T06:22:48.801Z,15.10
2019-05-07T06:25:19.001Z,15.90
2019-05-07T06:27:47.738Z,16.20
2019-05-07T06:30:17.513Z,15.83
2019-05-07T06:32:46.217Z,14.13
2019-05-07T06:35:14.774Z,12.03
2019-05-07T06:37:44.154Z,14.00
2019-05-07T06:40:19.649Z,15.30
2019-05-07T06:43:03.134Z,14.57
2019-05-07T06:45:36.271Z,14.30
2019-05-07T06:48:04.701Z,14.60
2019-05-07T06:50:33.450Z,15.90
2019-05-07T06:53:02.655Z,14.43
2019-05-07T06:55:32.402Z,12.60
2019-05-07T06:58:02.669Z,14.80
2019-05-07T07:00:33.383Z,16.80
2019-05-07T07:03:12.845Z,14.07
2019-05-07T07:05:43.396Z,12.67
2019-05-07T07:08:23.043Z,13.90
2019-05-07T07:11:05.512Z,15.27
2019-05-07T07:13:33.939Z,15.57
2019-05-07T07:16:02.605Z,13.57
2019-05-07T07:18:32.310Z,15.20
2019-05-07T07:21:02.227Z,16.20
2019-05-07T07:23:32.441Z,13.77
2019-05-07T07:26:03.261Z,14.93
2019-05-07T07:28:32.673Z,12.70
2019-05-07T07:31:15.619Z,11.67
2019-05-07T07:33:45.682Z,15.27
2019-05-07T07:36:14.379Z,15.27
2019-05-07T07:38:43.127Z,15.03
2019-05-07T07:41:14.988Z,14.63
2019-05-07T07:43:43.393Z,15.13
2019-05-07T07:46:13.142Z,15.93
2019-05-07T07:48:43.494Z,13.87
2019-05-07T07:51:13.787Z,15.20
2019-05-07T07:53:42.611Z,13.03
2019-05-07T07:56:29.296Z,14.60
2019-05-07T07:59:05.310Z,12.47
2019-05-07T08:01:38.472Z,12.40
2019-05-07T08:04:06.950Z,12.53
2019-05-07T08:06:37.018Z,11.77
2019-05-07T08:09:08.338Z,11.13
2019-05-07T08:11:37.323Z,9.20
2019-05-07T08:14:06.969Z,11.93
2019-05-07T08:16:35.639Z,12.10
2019-05-07T08:19:18.116Z,9.70
2019-05-07T08:21:34.967Z,8.30
2019-05-07T08:24:03.374Z,8.10
2019-05-07T08:26:32.297Z,8.77
2019-05-07T08:29:02.864Z,7.87
2019-05-07T08:31:51.749Z,9.50
2019-05-07T08:34:24.570Z,11.67
2019-05-07T08:36:52.994Z,10.90
2019-05-07T08:39:22.300Z,11.97
2019-05-07T08:41:52.698Z,12.50
2019-05-07T08:44:22.921Z,13.00
2019-05-07T08:46:55.922Z,10.13
2019-05-07T08:49:35.789Z,10.43
2019-05-07T08:52:03.483Z,10.07
2019-05-07T08:54:33.403Z,7.47
2019-05-07T08:57:02.477Z,4.93
2019-05-07T08:59:32.225Z,5.87
2019-05-07T09:02:02.941Z,6.03
2019-05-07T09:04:32.722Z,7.40
2019-05-07T09:07:02.635Z,7.77
2019-05-07T09:09:32.475Z,7.53
2019-05-07T09:12:03.037Z,9.23
2019-05-07T09:14:32.209Z,9.07
2019-05-07T09:17:02.448Z,8.40
2019-05-07T09:19:32.381Z,8.03
2019-05-07T09:22:02.150Z,9.17
2019-05-07T09:24:32.995Z,8.40
2019-05-07T09:27:05.933Z,8.50
2019-05-07T09:29:51.994Z,10.47
2019-05-07T09:32:32.690Z,9.97
2019-05-07T09:35:21.561Z,8.73
2019-05-07T09:37:49.939Z,10.83
2019-05-07T09:40:18.831Z,12.20
2019-05-07T09:42:47.255Z,10.80
2019-05-07T09:45:16.823Z,10.40
2019-05-07T09:47:45.243Z,10.60
2019-05-07T09:50:14.710Z,9.70
2019-05-07T09:52:43.200Z,9.60
2019-05-07T09:55:16.791Z,8.50
2019-05-07T09:57:42.689Z,7.20
2019-05-07T10:00:12.497Z,8.53
2019-05-07T10:02:42.546Z,11.20
2019-05-07T10:05:12.135Z,10.73
2019-05-07T10:07:42.332Z,13.00
2019-05-07T10:10:12.166Z,17.20
2019-05-07T10:12:58.914Z,16.20
2019-05-07T10:15:27.702Z,16.00
2019-05-07T10:17:57.831Z,16.20
2019-05-07T10:20:26.686Z,18.23
2019-05-07T10:22:55.269Z,14.50
2019-05-07T10:25:25.390Z,15.83
2019-05-07T10:27:53.963Z,14.97
2019-05-07T10:30:22.641Z,13.17
2019-05-07T10:32:52.746Z,16.30
2019-05-07T10:35:22.923Z,15.10
2019-05-07T10:37:52.770Z,14.40
2019-05-07T10:40:22.438Z,16.20
2019-05-07T10:42:51.967Z,15.53
2019-05-07T10:45:22.314Z,15.17
2019-05-07T10:47:52.361Z,16.60
2019-05-07T10:50:35.534Z,15.00
2019-05-07T10:52:52.961Z,12.80
2019-05-07T10:55:22.325Z,13.30
2019-05-07T10:57:52.873Z,12.33
2019-05-07T11:00:23.772Z,13.67
2019-05-07T11:02:52.272Z,13.63
2019-05-07T11:05:21.958Z,14.87
2019-05-07T11:07:50.713Z,13.30
2019-05-07T11:10:19.512Z,12.90
2019-05-07T11:12:48.000Z,11.10
2019-05-07T11:15:16.883Z,9.93
2019-05-07T11:17:49.561Z,11.60
2019-05-07T11:20:18.453Z,11.13
2019-05-07T11:22:47.178Z,10.60
2019-05-07T11:25:15.688Z,13.03
2019-05-07T11:27:44.466Z,13.40
2019-05-07T11:30:13.549Z,13.20
2019-05-07T11:32:42.957Z,13.23
2019-05-07T11:35:14.767Z,11.60
2019-05-07T11:37:44.298Z,9.80
2019-05-07T11:40:14.230Z,10.90
2019-05-07T11:43:02.464Z,9.90
2019-05-07T11:45:32.585Z,11.37
2019-05-07T11:48:01.930Z,11.30
2019-05-07T11:50:45.147Z,11.40
2019-05-07T11:53:27.327Z,9.97
2019-05-07T11:55:55.792Z,9.83
2019-05-07T11:58:24.210Z,11.17
2019-05-07T12:01:04.211Z,10.20
2019-05-07T12:03:32.787Z,8.03
2019-05-07T12:06:02.087Z,9.50
2019-05-07T12:08:39.339Z,9.37
2019-05-07T12:11:02.381Z,8.73
2019-05-07T12:13:32.294Z,13.27
2019-05-07T12:16:02.989Z,12.07
2019-05-07T12:18:32.093Z,12.07
2019-05-07T12:21:03.735Z,10.47
2019-05-07T12:23:33.233Z,8.33
2019-05-07T12:26:02.208Z,12.40
2019-05-07T12:28:32.770Z,12.50
2019-05-07T12:31:18.331Z,11.93
2019-05-07T12:33:48.785Z,11.10
2019-05-07T12:36:17.222Z,12.43
2019-05-07T12:38:45.638Z,12.60
2019-05-07T12:41:34.086Z,11.90
2019-05-07T12:44:06.313Z,13.83
2019-05-07T12:46:35.642Z,11.60
2019-05-07T12:49:04.623Z,13.10
2019-05-07T12:51:37.677Z,11.13
2019-05-07T12:54:23.179Z,10.50
2019-05-07T12:56:52.007Z,10.63
2019-05-07T12:59:21.894Z,10.73
2019-05-07T13:01:52.169Z,9.43
2019-05-07T13:04:22.317Z,7.80
2019-05-07T13:06:52.770Z,10.33
2019-05-07T13:09:21.995Z,10.90
2019-05-07T13:11:52.517Z,10.47
2019-05-07T13:14:21.850Z,8.40
2019-05-07T13:16:52.287Z,11.90
2019-05-07T13:19:22.605Z,12.60
2019-05-07T13:21:50.970Z,12.70
2019-05-07T13:24:19.626Z,13.43
2019-05-07T13:26:48.056Z,12.97
2019-05-07T13:29:16.797Z,13.87
2019-05-07T13:31:45.573Z,13.97
2019-05-07T13:34:14.785Z,14.50
2019-05-07T13:36:45.015Z,14.60
2019-05-07T13:39:23.459Z,15.23
2019-05-07T13:41:56.611Z,12.03
2019-05-07T13:44:28.150Z,13.83
2019-05-07T13:47:15.299Z,13.70
2019-05-07T13:49:44.643Z,11.80
2019-05-07T13:52:13.585Z,12.47
2019-05-07T13:54:42.333Z,13.30
2019-05-07T13:57:12.043Z,14.60
2019-05-07T13:59:42.333Z,12.17
2019-05-07T14:02:15.371Z,12.20
2019-05-07T14:04:42.577Z,12.53
2019-05-07T14:07:12.679Z,10.23
2019-05-07T14:09:42.028Z,11.40
2019-05-07T14:12:12.344Z,12.07
2019-05-07T14:14:42.637Z,12.57
2019-05-07T14:17:12.663Z,11.40
2019-05-07T14:19:42.284Z,12.07
2019-05-07T14:22:17.938Z,11.27
2019-05-07T14:24:42.258Z,13.23
2019-05-07T14:27:10.774Z,12.70
2019-05-07T14:29:39.212Z,13.50
2019-05-07T14:32:12.811Z,12.70
2019-05-07T14:34:45.776Z,13.23
2019-05-07T14:37:16.203Z,12.57
2019-05-07T14:39:44.625Z,13.40
2019-05-07T14:42:14.692Z,12.33
2019-05-07T14:44:49.955Z,13.30
2019-05-07T14:47:22.079Z,13.33
2019-05-07T14:49:52.669Z,13.40
2019-05-07T14:52:30.289Z,14.00
2019-05-07T14:54:50.810Z,13.80
2019-05-07T14:57:19.395Z,14.23
2019-05-07T14:59:47.892Z,14.53
2019-05-07T15:02:17.006Z,13.60
2019-05-07T15:04:45.687Z,13.93
2019-05-07T15:07:14.369Z,14.10
2019-05-07T15:09:43.058Z,14.23
2019-05-07T15:12:14.634Z,14.30
2019-05-07T15:14:42.179Z,15.00
2019-05-07T15:17:18.442Z,12.10
2019-05-07T15:19:47.151Z,13.37
2019-05-07T15:22:26.783Z,12.40
2019-05-07T15:24:56.790Z,14.37
2019-05-07T15:27:25.486Z,13.03
2019-05-07T15:29:53.977Z,11.10
2019-05-07T15:32:22.387Z,13.77
2019-05-07T15:34:52.718Z,14.20
2019-05-07T15:37:21.261Z,11.57
2019-05-07T15:39:49.686Z,11.97
2019-05-07T15:42:18.546Z,12.93
2019-05-07T15:44:46.961Z,13.07
2019-05-07T15:47:19.829Z,14.10
2019-05-07T15:49:48.255Z,15.83
2019-05-07T15:52:18.311Z,14.97
2019-05-07T15:54:46.732Z,12.23
2019-05-07T15:57:22.647Z,12.53
2019-05-07T15:59:52.718Z,12.80
2019-05-07T16:02:26.165Z,11.07
2019-05-07T16:04:54.591Z,11.73
2019-05-07T16:07:23.005Z,10.33
2019-05-07T16:09:52.567Z,11.33
2019-05-07T16:12:22.699Z,10.40
2019-05-07T16:14:52.488Z,11.03
2019-05-07T16:17:24.504Z,11.60
2019-05-07T16:19:55.124Z,12.60
2019-05-07T16:22:24.959Z,9.30
2019-05-07T16:24:53.377Z,10.73
2019-05-07T16:27:22.549Z,11.60
2019-05-07T16:29:52.663Z,11.80
2019-05-07T16:32:23.898Z,11.27
2019-05-07T16:34:52.744Z,9.20
2019-05-07T16:37:21.698Z,10.63
2019-05-07T16:39:50.215Z,11.57
2019-05-07T16:42:18.630Z,10.40
2019-05-07T16:44:47.047Z,8.87
2019-05-07T16:47:15.518Z,8.83
2019-05-07T16:49:43.962Z,10.87
2019-05-07T16:52:12.369Z,9.60
2019-05-07T16:54:42.635Z,10.00
2019-05-07T16:57:16.166Z,10.20
2019-05-07T16:59:44.641Z,11.47
2019-05-07T17:02:14.706Z,11.53
2019-05-07T17:05:03.158Z,12.17
2019-05-07T17:07:32.127Z,9.43
2019-05-07T17:10:02.682Z,11.53
2019-05-07T17:12:32.455Z,12.33
2019-05-07T17:15:02.922Z,11.80
2019-05-07T17:17:32.014Z,12.37
2019-05-07T17:20:02.789Z,12.77
2019-05-07T17:22:32.304Z,12.37
2019-05-07T17:25:03.181Z,10.67
2019-05-07T17:27:32.239Z,12.80
2019-05-07T17:30:02.762Z,11.83
2019-05-07T17:32:32.098Z,11.70
2019-05-07T17:35:02.445Z,12.63
2019-05-07T17:37:31.113Z,12.50
2019-05-07T17:39:59.810Z,12.23
2019-05-07T17:42:28.234Z,11.27
2019-05-07T17:44:56.974Z,10.00
2019-05-07T17:47:25.679Z,12.27
2019-05-07T17:49:54.371Z,13.43
2019-05-07T17:52:22.853Z,13.37
2019-05-07T17:54:52.774Z,12.90
2019-05-07T17:57:22.761Z,11.20
2019-05-07T17:59:52.537Z,11.00
2019-05-07T18:02:39.190Z,10.50
2019-05-07T18:05:08.598Z,10.57
2019-05-07T18:07:37.018Z,10.63
2019-05-07T18:10:06.323Z,11.47
2019-05-07T18:12:35.091Z,11.47
2019-05-07T18:15:04.978Z,11.30
2019-05-07T18:17:35.041Z,11.37
2019-05-07T18:20:04.200Z,10.93
2019-05-07T18:22:32.905Z,12.53
2019-05-07T18:25:01.886Z,10.60
2019-05-07T18:27:32.848Z,10.90
2019-05-07T18:30:02.831Z,11.00
2019-05-07T18:32:32.619Z,11.70
2019-05-07T18:35:02.367Z,11.90
2019-05-07T18:37:32.603Z,12.13
2019-05-07T18:40:02.543Z,10.70
2019-05-07T18:42:32.695Z,10.87
2019-05-07T18:45:02.188Z,10.70
2019-05-07T18:47:32.991Z,11.23
2019-05-07T18:50:02.895Z,10.50
2019-05-07T18:52:32.034Z,11.97
2019-05-07T18:55:02.683Z,11.00
2019-05-07T18:57:32.811Z,11.63
2019-05-07T19:00:04.784Z,11.67
2019-05-07T19:02:31.937Z,11.70
2019-05-07T19:05:02.603Z,11.97
2019-05-07T19:07:32.447Z,11.93
2019-05-07T19:10:02.674Z,12.40
2019-05-07T19:12:33.003Z,12.23
2019-05-07T19:15:02.880Z,13.07
2019-05-07T19:17:32.310Z,13.40
2019-05-07T19:20:03.212Z,12.27
2019-05-07T19:22:33.107Z,11.83
2019-05-07T19:25:02.994Z,12.00
2019-05-07T19:27:32.704Z,12.13
2019-05-07T19:30:01.696Z,12.33
2019-05-07T19:32:32.127Z,13.60
2019-05-07T19:35:00.260Z,15.60
2019-05-07T19:37:28.662Z,15.70
2019-05-07T19:39:57.374Z,13.97
2019-05-07T19:42:25.801Z,16.80
2019-05-07T19:44:54.221Z,15.30
2019-05-07T19:47:23.239Z,16.97
2019-05-07T19:49:52.435Z,15.27
2019-05-07T19:52:23.174Z,15.47
2019-05-07T19:55:00.765Z,15.20
2019-05-07T19:57:23.847Z,15.97
2019-05-07T19:59:52.334Z,14.90
2019-05-07T20:02:27.021Z,14.77
2019-05-07T20:04:55.342Z,15.80
2019-05-07T20:07:24.029Z,15.20
2019-05-07T20:09:52.702Z,15.00
2019-05-07T20:12:21.134Z,14.57
2019-05-07T20:14:51.625Z,13.70
2019-05-07T20:17:21.719Z,13.70
2019-05-07T20:19:52.608Z,13.13
2019-05-07T20:22:22.155Z,14.37
2019-05-07T20:24:52.597Z,13.53
2019-05-07T20:27:23.065Z,13.80
2019-05-07T20:29:52.264Z,12.80
2019-05-07T20:32:22.530Z,12.00
2019-05-07T20:34:52.007Z,11.00
2019-05-07T20:37:21.965Z,11.70
2019-05-07T20:39:52.401Z,11.87
2019-05-07T20:42:22.812Z,10.63
2019-05-07T20:44:51.962Z,10.50
2019-05-07T20:47:22.035Z,10.83
2019-05-07T20:49:50.874Z,12.27
2019-05-07T20:52:19.342Z,11.80
2019-05-07T20:54:58.341Z,10.57
2019-05-07T20:57:31.962Z,10.70
2019-05-07T21:00:02.628Z,11.17
2019-05-07T21:02:44.012Z,10.07
2019-05-07T21:05:02.952Z,11.20
2019-05-07T21:07:32.782Z,11.43
2019-05-07T21:10:02.045Z,11.30
2019-05-07T21:12:33.115Z,12.30
2019-05-07T21:15:03.254Z,11.23
2019-05-07T21:17:32.183Z,11.30
2019-05-07T21:20:01.139Z,12.57
2019-05-07T21:22:31.844Z,12.03
2019-05-07T21:24:59.696Z,11.53
2019-05-07T21:27:28.145Z,11.40
2019-05-07T21:29:56.914Z,10.80
2019-05-07T21:32:25.318Z,11.93
2019-05-07T21:34:53.738Z,11.63
2019-05-07T21:37:22.923Z,11.90
2019-05-07T21:39:53.149Z,12.67
2019-05-07T21:42:22.816Z,11.80
2019-05-07T21:44:52.672Z,11.87
2019-05-07T21:47:22.155Z,12.20
2019-05-07T21:49:53.330Z,11.30
2019-05-07T21:52:22.162Z,12.23
2019-05-07T21:54:52.567Z,12.17
2019-05-07T21:57:25.718Z,12.17
2019-05-07T21:59:55.778Z,12.97
2019-05-07T22:02:25.640Z,11.90
2019-05-07T22:04:54.326Z,12.47
2019-05-07T22:07:22.913Z,12.27
2019-05-07T22:09:52.374Z,12.60
2019-05-07T22:12:22.648Z,13.83
2019-05-07T22:14:51.199Z,13.60
2019-05-07T22:17:21.808Z,13.60
2019-05-07T22:19:52.331Z,12.37
2019-05-07T22:22:23.981Z,12.90
2019-05-07T22:24:52.734Z,12.13
2019-05-07T22:27:22.099Z,12.77
2019-05-07T22:29:52.744Z,12.93
2019-05-07T22:32:39.216Z,12.10
2019-05-07T22:35:11.934Z,12.27
2019-05-07T22:37:39.845Z,13.57
2019-05-07T22:40:08.510Z,12.17
2019-05-07T22:42:36.921Z,12.37
2019-05-07T22:45:05.770Z,13.60
2019-05-07T22:47:34.190Z,13.70
2019-05-07T22:50:02.948Z,13.00
2019-05-07T22:52:32.631Z,13.43
2019-05-07T22:55:01.575Z,14.00
2019-05-07T22:57:34.414Z,13.90
2019-05-07T23:00:04.637Z,14.37
2019-05-07T23:02:33.310Z,16.07
2019-05-07T23:05:02.920Z,14.70
2019-05-07T23:07:32.850Z,13.73
2019-05-07T23:10:02.801Z,13.70
2019-05-07T23:12:32.669Z,14.77
2019-05-07T23:15:02.689Z,14.30
2019-05-07T23:17:32.654Z,12.90
2019-05-07T23:20:01.303Z,13.10
2019-05-07T23:22:32.258Z,13.63
2019-05-07T23:25:00.178Z,13.63
2019-05-07T23:27:28.863Z,14.00
2019-05-07T23:29:57.273Z,13.90
2019-05-07T23:32:25.690Z,13.73
2019-05-07T23:34:54.434Z,15.43
2019-05-07T23:37:23.110Z,13.90
2019-05-07T23:39:56.201Z,14.00
2019-05-07T23:42:26.258Z,14.47
2019-05-07T23:44:55.010Z,14.80
2019-05-07T23:47:23.454Z,12.77
2019-05-07T23:49:52.387Z,15.00
2019-05-07T23:52:22.541Z,13.70
2019-05-07T23:54:52.166Z,15.37
2019-05-07T23:57:23.128Z,14.70
2019-05-07T23:59:52.999Z,15.37
